Time;durP1;ratioP1;P1;durP2;ratioP2;P2;SDS_P1;SDS_P2;PMS_P1;PMS_P2;Temp;Humidity;BMP_temperature;BMP_pressure;BME280_temperature;BME280_humidity;BME280_pressure;Samples;Min_cycle;Max_cycle;Signal;HPM_P1;HPM_P2
2021/05/26 00:04:28;;;;;;;2.65;1.58;;;17.60;65.50;;;;;;10562090;28;20107;-57
2021/05/26 00:09:29;;;;;;;3.90;1.48;;;17.70;65.50;;;;;;10541657;28;20536;-57
2021/05/26 00:14:29;;;;;;;1.63;1.10;;;17.60;65.50;;;;;;10569030;28;20042;-57
2021/05/26 00:19:31;;;;;;;4.45;1.40;;;17.70;65.40;;;;;;10545483;28;20392;-57
2021/05/26 00:24:32;;;;;;;1.95;1.05;;;17.70;65.30;;;;;;10543221;28;20039;-57
2021/05/26 00:29:33;;;;;;;1.80;1.27;;;17.70;65.30;;;;;;10562352;28;20089;-57
2021/05/26 00:34:34;;;;;;;2.13;1.15;;;17.60;65.30;;;;;;10570319;28;20044;-56
2021/05/26 00:39:34;;;;;;;2.28;1.25;;;17.60;65.20;;;;;;10566622;28;20054;-56
2021/05/26 00:44:35;;;;;;;2.30;1.20;;;17.60;65.30;;;;;;10547098;28;20036;-57
2021/05/26 00:49:36;;;;;;;1.52;0.90;;;17.60;65.20;;;;;;10531775;28;20458;-57
2021/05/26 00:54:36;;;;;;;3.25;1.20;;;17.70;65.10;;;;;;10561841;28;20482;-56
2021/05/26 00:59:37;;;;;;;1.50;1.15;;;17.70;65.10;;;;;;10563073;28;20115;-56
2021/05/26 01:04:38;;;;;;;2.00;0.88;;;17.70;65.00;;;;;;10541560;28;20089;-57
2021/05/26 01:09:39;;;;;;;1.80;0.98;;;17.70;65.00;;;;;;10564659;28;20548;-57
2021/05/26 01:14:41;;;;;;;3.22;1.15;;;17.70;65.00;;;;;;10566921;28;20476;-57
2021/05/26 01:19:41;;;;;;;2.05;0.95;;;17.70;65.00;;;;;;10574918;28;20487;-56
2021/05/26 01:24:42;;;;;;;1.90;1.13;;;17.70;64.90;;;;;;10559093;28;20032;-57
2021/05/26 01:29:43;;;;;;;3.38;1.08;;;17.70;64.90;;;;;;10564890;28;20047;-57
2021/05/26 01:34:44;;;;;;;1.88;0.80;;;17.70;64.80;;;;;;10567267;28;20036;-57
2021/05/26 01:39:49;;;;;;;2.15;0.88;;;17.70;64.80;;;;;;10560201;28;20074;-57
2021/05/26 01:44:50;;;;;;;2.17;0.80;;;17.70;64.80;;;;;;10562509;28;20034;-57
2021/05/26 01:49:51;;;;;;;1.52;0.90;;;17.70;64.80;;;;;;10523860;28;20492;-57
2021/05/26 01:54:51;;;;;;;1.60;1.00;;;17.70;64.80;;;;;;10556285;28;20057;-57
2021/05/26 01:59:52;;;;;;;3.00;0.80;;;17.70;64.70;;;;;;10555222;28;20030;-57
2021/05/26 02:04:53;;;;;;;1.63;0.82;;;17.70;64.70;;;;;;10574539;28;20031;-57
2021/05/26 02:09:53;;;;;;;2.65;1.00;;;17.70;64.70;;;;;;10539338;28;20111;-57
2021/05/26 02:14:55;;;;;;;1.55;0.95;;;17.70;64.70;;;;;;10577532;28;20040;-57
2021/05/26 02:19:56;;;;;;;1.20;1.00;;;17.60;64.70;;;;;;10555921;28;20480;-57
2021/05/26 02:24:57;;;;;;;1.13;0.65;;;17.70;64.70;;;;;;10558147;28;20062;-57
2021/05/26 02:29:57;;;;;;;1.02;0.70;;;17.70;64.60;;;;;;10561237;28;20414;-57
2021/05/26 02:34:58;;;;;;;1.75;0.73;;;17.70;64.60;;;;;;10577371;28;20514;-56
2021/05/26 02:39:59;;;;;;;1.83;0.68;;;17.70;64.60;;;;;;10563839;28;20138;-56
2021/05/26 02:45:00;;;;;;;1.27;0.75;;;17.70;64.60;;;;;;10551785;28;20028;-57
2021/05/26 02:50:00;;;;;;;1.95;0.73;;;17.60;64.50;;;;;;10555855;28;20059;-57
2021/05/26 02:55:01;;;;;;;1.08;0.70;;;17.70;64.50;;;;;;10551520;28;20031;-57
2021/05/26 03:00:05;;;;;;;1.70;0.80;;;17.60;64.50;;;;;;10564913;28;20063;-57
2021/05/26 03:05:07;;;;;;;1.83;0.60;;;17.60;64.50;;;;;;10576407;28;20039;-57
2021/05/26 03:10:10;;;;;;;0.90;0.50;;;17.70;64.50;;;;;;10565568;28;20406;-57
2021/05/26 03:15:14;;;;;;;2.33;0.80;;;17.70;64.40;;;;;;10572318;28;20028;-57
2021/05/26 03:20:16;;;;;;;0.77;0.60;;;17.60;64.40;;;;;;10565090;28;20036;-57
2021/05/26 03:25:17;;;;;;;1.48;0.75;;;17.70;64.50;;;;;;10557258;28;20107;-57
2021/05/26 03:30:19;;;;;;;2.53;0.77;;;17.60;64.50;;;;;;10567364;28;20377;-57
2021/05/26 03:35:21;;;;;;;1.67;0.85;;;17.60;64.40;;;;;;10554793;28;20052;-57
2021/05/26 03:40:21;;;;;;;1.42;0.70;;;17.70;64.40;;;;;;10548710;28;20417;-57
2021/05/26 03:45:22;;;;;;;3.08;0.98;;;17.70;64.30;;;;;;10547913;28;20119;-57
2021/05/26 03:50:24;;;;;;;1.33;0.70;;;17.70;64.30;;;;;;10552583;28;20090;-57
2021/05/26 03:55:26;;;;;;;2.67;1.00;;;17.70;64.20;;;;;;10562627;28;20027;-57
2021/05/26 04:00:26;;;;;;;2.17;0.90;;;17.70;64.30;;;;;;10546513;28;20024;-57
2021/05/26 04:05:27;;;;;;;2.75;1.05;;;17.70;64.30;;;;;;10564880;28;20115;-57
2021/05/26 04:10:28;;;;;;;1.13;0.70;;;17.70;64.20;;;;;;10555249;28;20071;-57
2021/05/26 04:15:28;;;;;;;2.25;0.82;;;17.70;64.20;;;;;;10565028;28;20036;-57
2021/05/26 04:20:29;;;;;;;1.73;0.77;;;17.70;64.20;;;;;;10557628;28;20440;-57
2021/05/26 04:25:30;;;;;;;1.95;1.10;;;17.70;64.20;;;;;;10559174;28;20134;-56
2021/05/26 04:30:30;;;;;;;1.45;0.80;;;17.70;64.20;;;;;;10566923;28;20031;-56
2021/05/26 04:35:31;;;;;;;1.67;0.75;;;17.70;64.20;;;;;;10566533;28;20109;-57
2021/05/26 04:40:32;;;;;;;1.08;0.65;;;17.70;64.80;;;;;;10546116;28;20051;-57
2021/05/26 04:45:33;;;;;;;1.50;0.80;;;17.70;64.20;;;;;;10563221;28;20019;-57
2021/05/26 04:50:33;;;;;;;1.65;0.80;;;17.70;64.20;;;;;;10526354;28;20034;-57
2021/05/26 04:55:34;;;;;;;3.55;0.75;;;17.70;64.20;;;;;;10543904;28;20468;-57
2021/05/26 05:00:36;;;;;;;1.77;0.90;;;17.70;64.10;;;;;;10542085;28;20590;-57
2021/05/26 05:05:37;;;;;;;2.45;1.30;;;17.70;64.20;;;;;;10521665;28;20032;-57
2021/05/26 05:10:37;;;;;;;2.95;0.98;;;17.70;64.20;;;;;;10527836;28;20483;-56
2021/05/26 05:15:38;;;;;;;2.17;1.10;;;17.60;64.20;;;;;;10556266;28;20026;-55
2021/05/26 05:20:39;;;;;;;4.97;1.10;;;17.70;64.30;;;;;;10562745;28;20043;-55
2021/05/26 05:25:40;;;;;;;5.80;1.30;;;17.70;65.80;;;;;;10560101;28;20016;-55
2021/05/26 05:30:40;;;;;;;5.75;1.88;;;17.70;65.50;;;;;;10566081;28;20055;-57
2021/05/26 05:35:41;;;;;;;4.03;0.70;;;17.70;65.60;;;;;;10557941;28;20071;-58
2021/05/26 05:40:44;;;;;;;3.65;1.10;;;17.70;65.80;;;;;;10570934;28;20056;-58
2021/05/26 05:45:45;;;;;;;8.35;1.77;;;17.70;66.10;;;;;;10528120;28;20032;-54
2021/05/26 05:50:46;;;;;;;11.20;2.08;;;17.80;66.20;;;;;;10542496;28;20024;-56
2021/05/26 05:55:46;;;;;;;13.63;2.33;;;17.70;66.10;;;;;;10541204;28;20441;-55
2021/05/26 06:00:47;;;;;;;10.10;1.88;;;17.80;66.20;;;;;;10551951;28;20159;-56
2021/05/26 06:05:47;;;;;;;13.63;2.65;;;17.70;66.20;;;;;;10578830;28;20084;-52
2021/05/26 06:10:48;;;;;;;8.88;2.28;;;17.70;66.50;;;;;;10561929;28;20043;-52
2021/05/26 06:15:49;;;;;;;10.75;2.60;;;17.70;66.30;;;;;;10534038;28;20465;-58
2021/05/26 06:20:49;;;;;;;9.95;1.83;;;17.60;66.20;;;;;;10562494;28;20024;-58
2021/05/26 06:25:50;;;;;;;11.90;2.28;;;17.60;66.00;;;;;;10573908;28;20106;-57
2021/05/26 06:30:52;;;;;;;9.40;1.90;;;17.60;66.10;;;;;;10572746;28;20067;-58
2021/05/26 06:35:52;;;;;;;9.60;2.17;;;17.60;66.00;;;;;;10572132;28;20053;-58
2021/05/26 06:40:53;;;;;;;13.13;2.55;;;17.60;66.00;;;;;;10548728;28;20066;-58
2021/05/26 06:45:54;;;;;;;9.32;1.65;;;17.50;66.10;;;;;;10550591;28;20198;-59
2021/05/26 06:50:55;;;;;;;14.15;2.78;;;17.60;66.10;;;;;;10568914;28;20108;-59
2021/05/26 06:55:55;;;;;;;10.30;2.30;;;17.60;66.00;;;;;;10578686;28;20081;-58
2021/05/26 07:00:56;;;;;;;8.70;2.00;;;17.60;66.10;;;;;;10553483;28;20019;-58
2021/05/26 07:05:57;;;;;;;11.90;2.42;;;17.60;66.10;;;;;;10556425;28;20419;-58
2021/05/26 07:10:58;;;;;;;12.60;2.75;;;17.60;66.20;;;;;;10549255;28;20115;-58
2021/05/26 07:15:58;;;;;;;10.88;2.40;;;17.50;66.40;;;;;;10576122;28;20099;-58
2021/05/26 07:21:00;;;;;;;8.35;1.92;;;17.50;66.40;;;;;;10559650;28;20441;-58
2021/05/26 07:26:01;;;;;;;14.50;3.08;;;17.50;66.50;;;;;;10565688;28;20032;-57
2021/05/26 07:31:03;;;;;;;14.15;3.63;;;17.50;67.10;;;;;;10548291;28;20024;-57
2021/05/26 07:36:04;;;;;;;16.83;3.67;;;17.50;66.70;;;;;;10540359;28;20527;-58
2021/05/26 07:41:06;;;;;;;17.95;4.63;;;17.50;66.90;;;;;;10563654;28;20032;-58
2021/05/26 07:46:06;;;;;;;18.35;3.78;;;17.50;66.90;;;;;;10565766;28;20118;-55
2021/05/26 07:51:07;;;;;;;19.80;3.40;;;17.50;67.00;;;;;;10579816;28;20395;-56
2021/05/26 07:56:08;;;;;;;10.25;3.03;;;17.50;66.70;;;;;;10583645;28;20118;-57
2021/05/26 08:01:10;;;;;;;17.15;3.42;;;17.50;66.60;;;;;;10565309;28;20032;-57
2021/05/26 08:06:12;;;;;;;9.13;2.67;;;17.50;66.70;;;;;;10542639;28;20104;-57
2021/05/26 08:11:13;;;;;;;15.50;2.97;;;17.50;66.70;;;;;;10570792;28;20061;-57
2021/05/26 08:16:13;;;;;;;20.25;3.58;;;17.50;66.70;;;;;;10567692;28;20383;-57
2021/05/26 08:21:15;;;;;;;9.88;2.72;;;17.40;66.60;;;;;;10565264;28;20103;-58
2021/05/26 08:26:25;;;;;;;8.15;2.83;;;17.50;67.30;;;;;;10568056;28;20480;-58
2021/05/26 08:31:25;;;;;;;14.60;4.55;;;17.40;66.50;;;;;;10559015;28;20119;-58
2021/05/26 08:36:26;;;;;;;9.13;3.47;;;17.40;66.40;;;;;;10545461;28;20130;-57
2021/05/26 08:41:28;;;;;;;11.70;3.17;;;17.50;66.30;;;;;;10554011;28;20028;-58
2021/05/26 08:46:29;;;;;;;13.38;3.13;;;17.50;66.30;;;;;;10578100;28;20016;-57
2021/05/26 08:51:33;;;;;;;12.25;4.35;;;17.50;66.20;;;;;;10582155;28;20504;-58
2021/05/26 08:56:34;;;;;;;6.60;2.97;;;17.50;66.20;;;;;;10575646;28;20032;-56
2021/05/26 09:01:35;;;;;;;7.20;3.13;;;17.50;66.20;;;;;;10545084;28;20108;-58
2021/05/26 09:06:42;;;;;;;8.65;3.17;;;17.50;66.20;;;;;;10562265;28;20055;-58
2021/05/26 09:11:43;;;;;;;10.63;3.30;;;17.50;66.20;;;;;;10539846;28;20093;-58
2021/05/26 09:16:44;;;;;;;9.70;2.70;;;17.50;66.30;;;;;;10559546;28;20570;-58
2021/05/26 09:21:47;;;;;;;6.63;2.58;;;17.50;66.30;;;;;;10550762;28;20495;-57
2021/05/26 09:27:20;;;;;;;7.28;2.67;;;17.50;66.40;;;;;;10530934;28;20036;-58
2021/05/26 09:32:27;;;;;;;8.95;2.75;;;17.40;66.20;;;;;;10507629;28;20392;-58
2021/05/26 09:37:30;;;;;;;5.50;1.80;;;17.40;66.90;;;;;;10555243;28;20388;-58
2021/05/26 09:42:35;;;;;;;3.58;1.80;;;17.40;66.60;;;;;;10549689;28;20047;-58
2021/05/26 09:47:38;;;;;;;6.88;2.67;;;17.40;66.60;;;;;;10559737;28;20428;-58
2021/05/26 09:52:57;;;;;;;6.15;3.03;;;17.40;67.20;;;;;;10557444;28;20032;-57
2021/05/26 09:57:59;;;;;;;5.32;2.28;;;17.40;66.70;;;;;;10533428;28;20034;-57
2021/05/26 10:03:00;;;;;;;5.55;2.60;;;17.40;66.60;;;;;;10572602;28;20028;-56
2021/05/26 10:08:13;;;;;;;6.10;2.08;;;17.40;66.60;;;;;;10567162;28;20077;-57
2021/05/26 10:13:15;;;;;;;6.90;3.25;;;17.40;66.60;;;;;;10565135;28;20039;-57
2021/05/26 10:18:17;;;;;;;5.45;2.55;;;17.40;66.60;;;;;;10584293;28;20038;-57
2021/05/26 10:23:20;;;;;;;7.72;2.17;;;17.40;66.50;;;;;;10567677;28;20106;-57
2021/05/26 10:28:31;;;;;;;6.82;2.33;;;17.40;66.30;;;;;;10572831;28;20028;-54
2021/05/26 10:33:44;;;;;;;7.80;2.35;;;17.40;66.40;;;;;;10558968;28;20085;-57
2021/05/26 10:39:00;;;;;;;5.93;2.45;;;17.40;66.60;;;;;;10551935;28;20066;-56
2021/05/26 10:44:01;;;;;;;7.35;2.45;;;17.40;67.10;;;;;;10560972;28;20027;-56
2021/05/26 10:49:04;;;;;;;6.82;2.15;;;17.40;67.30;;;;;;10533762;28;20027;-58
2021/05/26 10:54:05;;;;;;;12.57;3.03;;;17.40;67.60;;;;;;10543651;28;20511;-57
2021/05/26 10:59:24;;;;;;;6.15;2.33;;;17.50;67.70;;;;;;10558557;28;20035;-58
2021/05/26 11:04:24;;;;;;;11.60;2.92;;;17.50;67.60;;;;;;10556290;28;20020;-55
2021/05/26 11:10:06;;;;;;;6.53;2.40;;;17.50;67.50;;;;;;10526378;28;20036;-57
2021/05/26 11:15:43;;;;;;;13.50;2.70;;;17.50;67.80;;;;;;10556392;28;20391;-58
2021/05/26 11:20:44;;;;;;;7.28;2.95;;;17.50;67.50;;;;;;10572231;28;20447;-57
2021/05/26 11:25:57;;;;;;;7.72;2.83;;;17.50;67.40;;;;;;10572854;28;20027;-57
2021/05/26 11:31:06;;;;;;;4.40;2.08;;;17.50;67.50;;;;;;10565377;28;20070;-55
2021/05/26 11:36:09;;;;;;;7.80;2.80;;;17.60;67.00;;;;;;10570352;28;20126;-56
2021/05/26 11:41:17;;;;;;;6.90;1.98;;;17.60;67.10;;;;;;10584536;28;20035;-56
2021/05/26 11:46:17;;;;;;;6.20;2.13;;;17.50;67.00;;;;;;10572701;28;20039;-57
2021/05/26 11:51:25;;;;;;;6.88;1.65;;;17.50;67.00;;;;;;10565333;28;20103;-57
2021/05/26 11:56:26;;;;;;;11.32;3.17;;;17.50;67.20;;;;;;10568896;28;20039;-57
2021/05/26 12:01:32;;;;;;;8.43;2.10;;;17.50;67.20;;;;;;10552077;28;20028;-57
2021/05/26 12:06:34;;;;;;;7.43;1.92;;;17.50;67.20;;;;;;10565704;28;20377;-57
2021/05/26 12:11:35;;;;;;;7.05;2.25;;;17.50;67.20;;;;;;10540605;28;20495;-56
2021/05/26 12:16:35;;;;;;;7.07;2.30;;;17.50;67.10;;;;;;10566944;28;20201;-57
2021/05/26 12:21:36;;;;;;;7.65;2.58;;;17.50;67.00;;;;;;10410533;28;20642;-56
2021/05/26 12:26:37;;;;;;;9.73;2.53;;;17.50;67.20;;;;;;10554931;28;20472;-54
2021/05/26 12:31:40;;;;;;;7.72;2.08;;;17.60;67.40;;;;;;10572291;28;20081;-56
2021/05/26 12:36:53;;;;;;;7.80;1.98;;;17.60;67.60;;;;;;10549989;28;20070;-56
2021/05/26 12:41:54;;;;;;;13.10;2.90;;;17.60;67.20;;;;;;10556564;28;20031;-57
2021/05/26 12:46:56;;;;;;;12.60;2.33;;;17.60;67.40;;;;;;10560635;28;20360;-57
2021/05/26 12:52:11;;;;;;;21.25;3.05;;;17.60;67.80;;;;;;10546466;28;20107;-57
2021/05/26 12:57:15;;;;;;;12.45;3.50;;;17.60;68.10;;;;;;10547474;28;20118;-57
2021/05/26 13:02:15;;;;;;;16.67;3.20;;;17.60;68.10;;;;;;10572009;28;20119;-57
2021/05/26 13:07:45;;;;;;;15.48;2.80;;;17.70;68.10;;;;;;10522309;28;20038;-57
2021/05/26 13:12:46;;;;;;;27.55;3.55;;;17.70;68.20;;;;;;10554438;28;20044;-58
2021/05/26 13:17:48;;;;;;;18.80;3.00;;;17.70;68.10;;;;;;10557736;28;20457;-57
2021/05/26 13:22:50;;;;;;;14.63;3.60;;;17.80;68.10;;;;;;10525210;28;20116;-57
2021/05/26 13:27:51;;;;;;;20.88;3.50;;;17.80;68.10;;;;;;10562220;28;20140;-57
2021/05/26 13:32:53;;;;;;;24.85;3.53;;;17.80;68.10;;;;;;10574447;28;20032;-56
2021/05/26 13:37:54;;;;;;;13.18;3.15;;;17.80;68.00;;;;;;10568478;28;20128;-56
2021/05/26 13:42:58;;;;;;;17.63;3.20;;;17.90;67.70;;;;;;10557549;28;20032;-57
2021/05/26 13:48:00;;;;;;;7.28;3.30;;;17.90;67.60;;;;;;10556439;28;20027;-57
2021/05/26 13:53:02;;;;;;;20.05;4.50;;;17.90;67.30;;;;;;10538331;28;20058;-56
2021/05/26 13:58:03;;;;;;;8.43;2.55;;;17.90;67.40;;;;;;10543233;28;20027;-56
2021/05/26 14:03:04;;;;;;;18.08;3.55;;;17.80;67.30;;;;;;10544369;28;20111;-57
2021/05/26 14:08:06;;;;;;;10.63;2.90;;;17.90;67.20;;;;;;10519864;28;20453;-54
2021/05/26 14:13:07;;;;;;;9.20;2.33;;;17.80;67.10;;;;;;10553933;28;20024;-56
2021/05/26 14:18:08;;;;;;;8.73;2.42;;;17.90;67.00;;;;;;10572168;28;20035;-56
2021/05/26 14:23:10;;;;;;;14.05;2.60;;;17.80;66.90;;;;;;10557498;28;20038;-56
2021/05/26 14:28:11;;;;;;;12.50;3.45;;;17.80;66.90;;;;;;10563737;28;20024;-57
2021/05/26 14:33:12;;;;;;;9.18;3.40;;;17.80;66.80;;;;;;10562287;28;20487;-57
2021/05/26 14:38:57;;;;;;;7.00;2.13;;;17.80;66.80;;;;;;10545616;28;20134;-57
2021/05/26 14:43:40;;;;;;;7.07;2.10;;;17.70;66.70;;;;;;10559435;28;20480;-57
2021/05/26 14:48:41;;;;;;;6.00;2.22;;;17.70;66.60;;;;;;10537583;28;20395;-57
2021/05/26 14:53:43;;;;;;;7.07;2.30;;;17.70;66.70;;;;;;10570447;28;20035;-57
2021/05/26 14:58:43;;;;;;;6.45;2.20;;;17.70;66.60;;;;;;10569036;28;20065;-56
2021/05/26 15:03:44;;;;;;;10.82;3.60;;;17.70;66.50;;;;;;10567960;28;20019;-57
2021/05/26 15:08:45;;;;;;;5.85;2.53;;;17.70;66.50;;;;;;10546876;28;20054;-57
2021/05/26 15:13:48;;;;;;;4.28;2.10;;;17.70;66.50;;;;;;10539303;28;20024;-57
2021/05/26 15:18:48;;;;;;;9.63;2.55;;;17.70;66.40;;;;;;10584384;28;20067;-54
2021/05/26 15:23:49;;;;;;;22.55;4.53;;;17.70;66.60;;;;;;10573093;28;20381;-56
2021/05/26 15:28:50;;;;;;;20.25;2.90;;;17.60;66.70;;;;;;10553312;28;20066;-53
2021/05/26 15:33:51;;;;;;;11.05;2.40;;;17.60;66.50;;;;;;10557731;28;20051;-55
2021/05/26 15:38:51;;;;;;;14.32;2.55;;;17.70;65.90;;;;;;10552036;28;20123;-55
2021/05/26 15:43:52;;;;;;;13.35;2.92;;;17.70;65.60;;;;;;10555105;28;20032;-54
2021/05/26 15:48:53;;;;;;;15.40;3.40;;;17.70;65.70;;;;;;10558635;28;20074;-55
2021/05/26 15:53:54;;;;;;;9.18;3.05;;;17.70;65.50;;;;;;10578236;28;20055;-54
2021/05/26 15:58:54;;;;;;;9.48;2.83;;;17.60;65.50;;;;;;10578592;28;20026;-55
2021/05/26 16:03:57;;;;;;;11.00;2.58;;;17.60;65.70;;;;;;10572392;28;20051;-54
2021/05/26 16:08:57;;;;;;;10.00;2.80;;;17.70;65.30;;;;;;10571737;28;20035;-55
2021/05/26 16:13:58;;;;;;;12.18;2.70;;;17.70;65.50;;;;;;10560123;28;20396;-57
2021/05/26 16:18:59;;;;;;;12.15;2.30;;;17.70;67.80;;;;;;10557233;28;20433;-55
2021/05/26 16:24:00;;;;;;;11.18;2.50;;;17.80;67.70;;;;;;10583044;28;20028;-54
2021/05/26 16:29:01;;;;;;;13.30;2.30;;;17.80;69.10;;;;;;10550261;28;20028;-54
2021/05/26 16:34:01;;;;;;;13.18;2.28;;;17.90;69.10;;;;;;10551911;28;20042;-50
2021/05/26 16:39:06;;;;;;;12.35;2.42;;;17.90;69.10;;;;;;10556932;28;20148;-49
2021/05/26 16:44:08;;;;;;;11.60;2.08;;;17.90;68.70;;;;;;10556580;28;20454;-48
2021/05/26 16:49:10;;;;;;;5.38;2.45;;;17.90;68.90;;;;;;10533632;28;20036;-53
2021/05/26 16:54:11;;;;;;;11.80;2.78;;;18.00;68.50;;;;;;10565018;28;20081;-54
2021/05/26 16:59:12;;;;;;;8.50;2.17;;;17.90;68.90;;;;;;10557023;28;20019;-54
2021/05/26 17:04:13;;;;;;;9.02;2.28;;;17.90;68.30;;;;;;10563326;28;20439;-54
2021/05/26 17:09:15;;;;;;;12.50;2.42;;;17.90;68.50;;;;;;10577057;28;20026;-54
2021/05/26 17:14:16;;;;;;;12.77;2.53;;;17.90;68.40;;;;;;10558142;28;20123;-52
2021/05/26 17:19:17;;;;;;;9.27;2.47;;;17.90;68.30;;;;;;10557345;28;20024;-55
2021/05/26 17:24:21;;;;;;;10.48;2.92;;;17.90;68.40;;;;;;10562888;28;20026;-55
2021/05/26 17:29:22;;;;;;;8.85;2.67;;;17.80;68.50;;;;;;10562279;28;20055;-54
2021/05/26 17:34:23;;;;;;;15.15;2.72;;;17.80;68.50;;;;;;10561928;28;20136;-55
2021/05/26 17:39:24;;;;;;;11.80;2.67;;;17.80;68.60;;;;;;10560921;28;20126;-53
2021/05/26 17:44:25;;;;;;;12.45;2.70;;;17.80;68.60;;;;;;10561173;28;20095;-55
2021/05/26 17:49:27;;;;;;;12.05;2.83;;;17.80;68.70;;;;;;10560461;28;20115;-53
2021/05/26 17:54:27;;;;;;;7.15;2.45;;;17.80;68.50;;;;;;10568044;28;20038;-57
2021/05/26 17:59:28;;;;;;;6.65;2.75;;;17.80;68.80;;;;;;10560932;28;20023;-56
2021/05/26 18:04:29;;;;;;;9.90;2.85;;;17.80;69.10;;;;;;10545038;28;20436;-57
2021/05/26 18:09:29;;;;;;;10.55;2.72;;;17.80;69.30;;;;;;10545039;28;20024;-55
2021/05/26 18:14:30;;;;;;;8.25;2.13;;;17.80;69.20;;;;;;10562762;28;20098;-57
2021/05/26 18:19:31;;;;;;;5.95;2.22;;;17.80;69.20;;;;;;10545265;28;20038;-56
2021/05/26 18:24:31;;;;;;;8.20;2.25;;;17.80;69.10;;;;;;10569231;28;20494;-56
2021/05/26 18:29:33;;;;;;;8.18;2.38;;;17.80;69.30;;;;;;10576482;28;20460;-57
2021/05/26 18:34:34;;;;;;;7.68;1.90;;;17.80;69.30;;;;;;10552197;28;20118;-58
2021/05/26 18:39:35;;;;;;;6.55;2.30;;;17.90;68.80;;;;;;10567228;28;20038;-57
2021/05/26 18:44:35;;;;;;;10.77;2.97;;;17.80;69.00;;;;;;10586391;28;20456;-57
2021/05/26 18:49:36;;;;;;;8.85;2.38;;;17.80;68.70;;;;;;10559366;28;20531;-57
2021/05/26 18:54:37;;;;;;;9.52;2.30;;;17.80;68.90;;;;;;10553383;28;20546;-58
2021/05/26 18:59:38;;;;;;;17.67;2.80;;;17.80;68.80;;;;;;10568507;28;20032;-58
2021/05/26 19:04:39;;;;;;;11.73;2.80;;;17.80;68.90;;;;;;10568200;28;20016;-56
2021/05/26 19:09:41;;;;;;;6.10;2.58;;;17.70;69.70;;;;;;10548450;28;20028;-56
2021/05/26 19:14:43;;;;;;;10.05;2.08;;;17.70;68.90;;;;;;10565102;28;20111;-56
2021/05/26 19:19:43;;;;;;;7.07;2.53;;;17.70;69.10;;;;;;10562308;28;20028;-56
2021/05/26 19:24:46;;;;;;;12.27;1.83;;;17.70;69.00;;;;;;10545660;28;20028;-56
2021/05/26 19:29:49;;;;;;;6.80;1.75;;;17.70;69.30;;;;;;10549402;28;20084;-56
2021/05/26 19:34:51;;;;;;;7.75;1.80;;;17.70;69.40;;;;;;10573108;28;20020;-57
2021/05/26 19:39:51;;;;;;;6.55;2.40;;;17.60;69.30;;;;;;10521209;28;20374;-56
2021/05/26 19:44:55;;;;;;;8.65;2.80;;;17.60;69.40;;;;;;10523432;28;20053;-56
2021/05/26 19:49:55;;;;;;;9.40;1.70;;;17.60;69.40;;;;;;10525767;28;20357;-54
2021/05/26 19:54:56;;;;;;;10.52;2.10;;;17.60;69.40;;;;;;10526921;28;20024;-54
2021/05/26 19:59:57;;;;;;;5.60;1.73;;;17.60;69.00;;;;;;10516263;28;20028;-54
2021/05/26 20:04:58;;;;;;;6.72;2.00;;;17.60;69.00;;;;;;10526884;28;20059;-56
2021/05/26 20:09:58;;;;;;;5.95;1.88;;;17.60;68.90;;;;;;10499628;28;20032;-56
2021/05/26 20:14:59;;;;;;;4.88;1.65;;;17.60;68.80;;;;;;10482295;28;20052;-56
2021/05/26 20:20:00;;;;;;;8.13;1.80;;;17.60;68.70;;;;;;10533604;28;20425;-56
2021/05/26 20:25:05;;;;;;;6.30;1.80;;;17.60;68.60;;;;;;10533094;28;20111;-55
2021/05/26 20:30:09;;;;;;;5.60;1.77;;;17.50;68.60;;;;;;10504225;28;20028;-56
2021/05/26 20:35:12;;;;;;;6.75;1.70;;;17.50;68.50;;;;;;10522719;28;20040;-55
2021/05/26 20:40:14;;;;;;;5.05;1.85;;;17.50;68.40;;;;;;10561540;28;20150;-55
2021/05/26 20:45:18;;;;;;;5.97;1.63;;;17.50;68.30;;;;;;10540394;28;20032;-55
2021/05/26 20:50:19;;;;;;;3.78;1.55;;;17.50;68.30;;;;;;10576363;28;20088;-56
2021/05/26 20:55:21;;;;;;;4.03;1.50;;;17.50;68.20;;;;;;10533827;28;20043;-56
2021/05/26 21:00:25;;;;;;;4.05;1.40;;;17.60;68.10;;;;;;10541240;28;20034;-56
2021/05/26 21:05:26;;;;;;;5.60;1.60;;;17.50;68.00;;;;;;10539959;28;20039;-56
2021/05/26 21:10:27;;;;;;;3.83;1.90;;;17.60;68.60;;;;;;10561707;28;20467;-56
2021/05/26 21:15:28;;;;;;;4.85;1.27;;;17.60;67.90;;;;;;10555146;28;20063;-56
2021/05/26 21:20:29;;;;;;;4.80;2.28;;;17.60;67.70;;;;;;10561643;28;20027;-56
2021/05/26 21:25:30;;;;;;;3.65;1.48;;;17.70;67.60;;;;;;10556243;28;20555;-56
2021/05/26 21:30:31;;;;;;;4.80;1.42;;;17.70;67.60;;;;;;10539065;28;20103;-56
2021/05/26 21:35:32;;;;;;;3.00;1.17;;;17.70;67.40;;;;;;10538705;28;20047;-55
2021/05/26 21:40:33;;;;;;;6.18;1.75;;;17.70;67.40;;;;;;10566133;28;20046;-56
2021/05/26 21:45:34;;;;;;;2.53;1.20;;;17.70;67.40;;;;;;10561493;28;20103;-56
2021/05/26 21:50:35;;;;;;;5.20;1.65;;;17.60;67.30;;;;;;10544514;28;20026;-56
2021/05/26 21:55:35;;;;;;;2.65;1.20;;;17.70;67.30;;;;;;10545542;28;20020;-56
2021/05/26 22:00:36;;;;;;;4.05;1.40;;;17.60;67.30;;;;;;10547771;28;20059;-56
2021/05/26 22:05:37;;;;;;;4.50;1.42;;;17.60;67.30;;;;;;10568491;28;20102;-56
2021/05/26 22:10:39;;;;;;;2.58;1.40;;;17.60;67.30;;;;;;10547107;28;20032;-56
2021/05/26 22:15:40;;;;;;;6.07;1.75;;;17.60;67.30;;;;;;10528935;28;20024;-56
2021/05/26 22:20:41;;;;;;;2.92;1.25;;;17.60;67.20;;;;;;10569477;28;20524;-55
2021/05/26 22:25:41;;;;;;;3.58;1.50;;;17.60;67.20;;;;;;10526565;28;20016;-56
2021/05/26 22:30:42;;;;;;;2.85;1.10;;;17.60;67.20;;;;;;10530626;28;20039;-54
2021/05/26 22:35:43;;;;;;;2.83;1.10;;;17.60;67.20;;;;;;10577157;28;20051;-56
2021/05/26 22:40:44;;;;;;;2.72;1.75;;;17.60;67.20;;;;;;10527728;28;20032;-56
2021/05/26 22:45:49;;;;;;;3.90;1.38;;;17.50;67.10;;;;;;10550234;28;20095;-56
2021/05/26 22:50:50;;;;;;;2.78;1.48;;;17.60;67.10;;;;;;10535568;28;20077;-56
2021/05/26 22:55:51;;;;;;;2.92;1.10;;;17.60;67.00;;;;;;10545429;28;20373;-56
2021/05/26 23:00:54;;;;;;;3.45;1.58;;;17.60;67.60;;;;;;10545150;28;20041;-56
2021/05/26 23:06:05;;;;;;;2.30;1.05;;;17.60;66.90;;;;;;10559010;28;20036;-57
2021/05/26 23:11:07;;;;;;;2.70;1.45;;;17.60;66.90;;;;;;10544487;28;20081;-56
2021/05/26 23:16:08;;;;;;;2.70;1.40;;;17.60;66.80;;;;;;10573219;28;20046;-56
2021/05/26 23:21:09;;;;;;;2.60;1.23;;;17.60;66.80;;;;;;10556138;28;20502;-56
2021/05/26 23:26:10;;;;;;;1.55;1.20;;;17.60;66.80;;;;;;10555222;28;20036;-56
2021/05/26 23:31:11;;;;;;;2.35;1.23;;;17.60;66.80;;;;;;10553615;28;20069;-56
2021/05/26 23:36:12;;;;;;;4.32;1.70;;;17.60;66.70;;;;;;10543335;28;20127;-56
2021/05/26 23:41:13;;;;;;;3.72;1.77;;;17.60;66.80;;;;;;10525065;28;20036;-56
2021/05/26 23:46:13;;;;;;;2.40;1.52;;;17.60;66.70;;;;;;10551787;28;20508;-55
2021/05/26 23:51:14;;;;;;;2.47;1.50;;;17.60;66.70;;;;;;10548125;28;20055;-57
2021/05/26 23:56:15;;;;;;;5.70;2.17;;;17.60;66.60;;;;;;10542912;28;20034;-56
